Fremont Valley, California
Current Conditions -  °F | °C
As of 9:55 AM on Sunday 21 Dec 2014 (Local Time) from KMHV Reporting Station
Clear Clear  
Wind Chill: 45°   Ceiling: Unl
Heat Index: 48°   Visibility: 10mi
Dew Point: 41°   Wind: 8mph
Humidity: 76%   Direction: 50°NE
Pressure: 30.2"   Gusts: NA
Location:  35.0508°N, 118.171°W
Report Text: KMHV 211755Z AUTO 05007KT 10SM CLR 09/05 A3020 RMK AO1
Loading
Personal Weather Stations






























Interactive Weather Map New forecast layout! Learn more

10-Day Weather Forecast

Advertisements
Track Severe Weather on mobile